Time;durP1;ratioP1;P1;durP2;ratioP2;P2;SDS_P1;SDS_P2;PMS_P1;PMS_P2;Temp;Humidity;BMP_temperature;BMP_pressure;BME280_temperature;BME280_humidity;BME280_pressure;Samples;Min_cycle;Max_cycle;Signal;HPM_P1;HPM_P2
2022/09/20 00:01:30;;;;;;;6.70;1.00;;;;;;;7.13;100.00;98235.47;18394434;32;20101;-60
2022/09/20 00:11:35;;;;;;;6.83;0.80;;;;;;;7.09;100.00;98238.88;18295914;32;20104;-60
2022/09/20 00:21:37;;;;;;;0.73;0.43;;;;;;;6.97;100.00;98238.06;18295982;32;20096;-60
2022/09/20 00:31:41;;;;;;;2.50;0.50;;;;;;;6.81;100.00;98239.56;18295479;32;20053;-60
2022/09/20 00:41:44;;;;;;;5.73;1.03;;;;;;;6.72;100.00;98237.19;18390976;32;20094;-60
2022/09/20 00:51:54;;;;;;;1.67;0.53;;;;;;;6.67;100.00;98233.56;18431554;32;20049;-60
2022/09/20 01:02:23;;;;;;;0.83;0.30;;;;;;;6.59;100.00;98229.34;18294166;32;20100;-60
2022/09/20 01:12:29;;;;;;;1.50;0.50;;;;;;;6.52;100.00;98225.94;18168478;32;20443;-62
2022/09/20 01:22:43;;;;;;;3.27;0.40;;;;;;;6.27;100.00;98224.22;18113845;32;20059;-61
2022/09/20 01:32:57;;;;;;;0.73;0.40;;;;;;;6.13;100.00;98222.78;18105448;32;20082;-62
2022/09/20 01:43:29;;;;;;;2.23;0.57;;;;;;;6.06;100.00;98218.31;18219494;32;20483;-62
2022/09/20 01:53:50;;;;;;;1.40;0.50;;;;;;;6.06;100.00;98221.00;18259997;32;20101;-61
2022/09/20 02:04:28;;;;;;;1.50;0.30;;;;;;;6.07;100.00;98229.84;18429534;32;20460;-62
2022/09/20 02:14:45;;;;;;;3.73;0.60;;;;;;;6.01;100.00;98226.22;18440973;32;20404;-62
2022/09/20 02:25:28;;;;;;;2.10;0.50;;;;;;;5.84;100.00;98230.53;18440420;32;20050;-61
2022/09/20 02:35:45;;;;;;;4.37;0.83;;;;;;;5.73;100.00;98230.25;18439003;32;20099;-61
2022/09/20 02:46:21;;;;;;;0.83;0.40;;;;;;;5.69;100.00;98223.72;18426227;32;20041;-62
2022/09/20 02:56:37;;;;;;;0.83;0.60;;;;;;;5.68;100.00;98219.38;18438573;32;20053;-62
2022/09/20 03:06:47;;;;;;;0.43;0.27;;;;;;;5.23;100.00;98215.09;18437959;32;20053;-62
2022/09/20 03:17:12;;;;;;;1.50;0.47;;;;;;;5.30;100.00;98233.00;18422965;32;20072;-62
2022/09/20 03:27:39;;;;;;;1.90;0.50;;;;;;;5.25;100.00;98231.81;18436349;32;20050;-61
2022/09/20 03:37:48;;;;;;;2.33;0.70;;;;;;;5.22;100.00;98229.56;18436465;32;20072;-61
2022/09/20 03:48:23;;;;;;;0.60;0.30;;;;;;;5.32;100.00;98234.44;18421286;32;20453;-62
2022/09/20 03:59:01;;;;;;;1.20;0.53;;;;;;;5.21;100.00;98233.28;18434365;32;20053;-61
2022/09/20 04:09:29;;;;;;;2.20;0.40;;;;;;;5.13;100.00;98227.41;18171220;32;20167;-62
2022/09/20 04:19:51;;;;;;;3.13;0.67;;;;;;;5.02;100.00;98227.06;18108198;32;20554;-62
2022/09/20 04:30:04;;;;;;;2.10;0.50;;;;;;;4.97;100.00;98234.94;18108076;32;20442;-62
2022/09/20 04:40:44;;;;;;;1.60;0.70;;;;;;;4.97;100.00;98234.94;18164492;32;20070;-61
2022/09/20 04:51:10;;;;;;;1.53;0.50;;;;;;;4.91;100.00;98254.59;18405126;32;20083;-61
2022/09/20 05:01:16;;;;;;;1.10;0.50;;;;;;;4.83;100.00;98265.59;18294272;32;20106;-62
2022/09/20 05:11:47;;;;;;;4.83;0.90;;;;;;;4.83;100.00;98273.63;18294351;32;20108;-61
2022/09/20 05:22:19;;;;;;;2.40;0.80;;;;;;;4.87;100.00;98264.13;18230531;32;20074;-62
2022/09/20 05:33:04;;;;;;;1.80;0.63;;;;;;;4.89;100.00;98288.81;18167535;32;20070;-61
2022/09/20 05:43:41;;;;;;;1.20;0.50;;;;;;;4.87;100.00;98285.56;18167823;32;20089;-62
2022/09/20 05:53:55;;;;;;;3.10;0.63;;;;;;;4.97;100.00;98283.19;18102350;32;20071;-61
2022/09/20 06:04:23;;;;;;;5.20;0.88;;;;;;;5.14;100.00;98288.00;18222143;32;20066;-62
2022/09/20 06:14:46;;;;;;;3.40;0.70;;;;;;;5.35;100.00;98300.22;18240845;32;20490;-61
2022/09/20 06:25:35;;;;;;;2.40;1.03;;;;;;;5.60;100.00;98301.00;18319194;32;20101;-61
2022/09/20 06:46:54;;;;;;;1.70;1.00;;;;;;;6.31;100.00;98316.72;18428935;32;20064;-62
2022/09/20 06:57:03;;;;;;;1.90;1.10;;;;;;;6.73;100.00;98327.53;18438089;32;20104;-62
2022/09/20 07:07:20;;;;;;;2.07;0.80;;;;;;;7.13;100.00;98318.03;18424116;32;20133;-61
2022/09/20 07:17:26;;;;;;;2.90;1.00;;;;;;;7.52;100.00;98325.69;18436825;32;20087;-62
2022/09/20 07:27:30;;;;;;;3.53;1.10;;;;;;;7.91;100.00;98326.00;18422840;32;20072;-62
2022/09/20 07:37:35;;;;;;;2.40;0.90;;;;;;;8.32;100.00;98329.56;18422193;32;20062;-62
2022/09/20 07:47:40;;;;;;;1.95;1.12;;;;;;;8.82;100.00;98353.19;18434959;32;20499;-62
2022/09/20 07:57:44;;;;;;;2.57;1.20;;;;;;;9.30;99.03;98361.00;18420791;32;20205;-59
2022/09/20 08:07:48;;;;;;;2.10;1.07;;;;;;;9.75;96.68;98349.28;18433961;32;20062;-59
2022/09/20 08:17:53;;;;;;;;;;;;;;;10.12;93.76;98361.41;18420272;32;20053;-60
2022/09/20 08:28:12;;;;;;;1.57;0.77;;;;;;;10.49;92.07;98372.44;18419418;32;19952;-59
2022/09/20 08:38:31;;;;;;;2.30;0.80;;;;;;;10.91;89.74;98381.03;18418794;32;20078;-60
2022/09/20 08:48:58;;;;;;;3.30;1.07;;;;;;;11.32;89.02;98381.44;18431356;32;20441;-60
2022/09/20 08:59:03;;;;;;;5.23;1.47;;;;;;;11.63;87.65;98384.41;18431699;32;20092;-60
2022/09/20 09:09:11;;;;;;;3.03;1.20;;;;;;;11.76;78.95;98380.41;18431022;32;20050;-60
2022/09/20 09:19:56;;;;;;;4.77;1.43;;;;;;;12.07;82.86;98376.03;18431018;32;20475;-60
2022/09/20 09:30:18;;;;;;;4.80;1.52;;;;;;;12.37;79.94;98366.44;18425015;32;20053;-60
2022/09/20 09:40:22;;;;;;;4.37;1.40;;;;;;;12.66;76.61;98372.25;18434254;32;20053;-62
2022/09/20 09:50:27;;;;;;;;;;;;;;;12.95;74.63;98365.53;18442639;32;20393;-60
2022/09/20 10:00:34;;;;;;;4.63;1.20;;;;;;;13.29;76.39;98359.63;18471813;32;19953;-60
2022/09/20 10:11:09;;;;;;;1.25;0.65;;;;;;;13.65;76.14;98352.31;18491530;32;20076;-60
2022/09/20 10:21:37;;;;;;;8.20;1.10;;;;;;;13.90;72.60;98346.00;18505243;32;20057;-60
2022/09/20 10:32:11;;;;;;;4.37;1.10;;;;;;;14.18;71.08;98332.91;18484789;32;20095;-60
2022/09/20 10:43:16;;;;;;;3.07;0.90;;;;;;;14.36;67.37;98333.34;18502747;32;20056;-60
2022/09/20 10:53:37;;;;;;;3.40;1.00;;;;;;;14.38;64.64;98320.31;18503266;32;20098;-60
2022/09/20 11:04:15;;;;;;;3.55;1.10;;;;;;;14.50;66.39;98322.69;18488523;32;20060;-60
2022/09/20 11:14:37;;;;;;;4.72;0.90;;;;;;;14.93;66.30;98324.94;18502275;32;20060;-60
2022/09/20 11:24:54;;;;;;;2.22;0.70;;;;;;;15.42;62.83;98327.56;18494661;32;20073;-60
2022/09/20 11:35:40;;;;;;;2.97;1.00;;;;;;;15.73;62.08;98321.00;18486530;32;20074;-60
2022/09/20 11:45:58;;;;;;;1.77;0.65;;;;;;;16.08;53.29;98321.78;18498186;32;20075;-60
2022/09/20 11:56:25;;;;;;;1.95;0.50;;;;;;;15.69;63.20;98312.59;18499584;32;20049;-60
2022/09/20 12:06:38;;;;;;;3.62;0.60;;;;;;;16.48;53.75;98306.00;18484893;32;20139;-60
2022/09/20 12:16:55;;;;;;;3.50;0.53;;;;;;;16.05;51.69;98306.78;18495096;32;20050;-60
2022/09/20 12:27:22;;;;;;;2.87;0.40;;;;;;;17.01;57.61;98296.00;18495179;32;20056;-61
2022/09/20 12:37:28;;;;;;;3.20;0.70;;;;;;;17.75;53.90;98301.56;18482794;32;20407;-60
2022/09/20 12:47:37;;;;;;;1.77;0.40;;;;;;;18.04;49.16;98288.78;18482429;32;20053;-60
2022/09/20 12:58:24;;;;;;;;;;;;;;;;;;;;;
2022/09/20 13:09:00;;;;;;;1.62;0.50;;;;;;;19.22;48.96;98285.37;18495523;32;20060;-60
2022/09/20 13:19:29;;;;;;;0.90;0.30;;;;;;;19.25;40.87;98277.34;18359369;32;20414;-59
2022/09/20 13:29:38;;;;;;;1.02;0.20;;;;;;;18.81;41.32;98276.16;18366488;32;20081;-60
2022/09/20 13:39:41;;;;;;;1.17;0.30;;;;;;;18.81;39.40;98262.47;18251275;32;20054;-60
2022/09/20 13:49:44;;;;;;;0.97;0.27;;;;;;;18.77;41.76;98266.94;18251268;32;20549;-60
2022/09/20 13:59:47;;;;;;;1.23;0.30;;;;;;;18.95;41.62;98265.19;18321103;32;20065;-60
2022/09/20 14:09:51;;;;;;;0.28;0.13;;;;;;;18.43;40.83;98262.75;18435315;32;20113;-60
2022/09/20 14:19:56;;;;;;;1.17;0.20;;;;;;;17.47;45.07;98265.16;18450438;32;20120;-60
2022/09/20 14:29:59;;;;;;;1.17;0.22;;;;;;;17.63;44.90;98268.44;18443192;32;20053;-60
2022/09/20 14:40:15;;;;;;;1.75;0.20;;;;;;;17.47;41.17;98254.22;18438513;32;20053;-59
2022/09/20 14:50:33;;;;;;;2.80;0.52;;;;;;;17.38;42.03;98264.25;18438965;32;20429;-60
2022/09/20 15:01:04;;;;;;;0.40;0.20;;;;;;;17.23;41.03;98257.13;18469055;32;20421;-61
2022/09/20 15:11:13;;;;;;;0.62;0.30;;;;;;;17.06;42.75;98238.53;18502384;32;20068;-60
2022/09/20 15:21:16;;;;;;;0.60;0.17;;;;;;;16.52;45.37;98238.78;18501808;32;20057;-60
2022/09/20 15:31:19;;;;;;;0.77;0.20;;;;;;;16.14;43.37;98246.94;18500936;32;20093;-60
2022/09/20 15:41:22;;;;;;;0.87;0.47;;;;;;;15.90;44.39;98239.59;18500307;32;20098;-60
2022/09/20 15:51:32;;;;;;;2.05;0.40;;;;;;;15.68;44.83;98253.72;18485704;32;20112;-60
2022/09/20 16:01:40;;;;;;;1.93;0.47;;;;;;;15.49;46.14;98253.63;18498613;32;20354;-60
2022/09/20 16:11:44;;;;;;;0.30;0.17;;;;;;;15.20;44.12;98257.19;18498586;32;20060;-60
2022/09/20 16:21:52;;;;;;;1.97;0.43;;;;;;;15.02;44.08;98257.84;18483848;32;20448;-60
2022/09/20 16:32:02;;;;;;;0.85;0.20;;;;;;;14.72;46.99;98259.75;18497660;32;20052;-60
2022/09/20 16:42:07;;;;;;;1.10;0.20;;;;;;;14.28;51.09;98265.94;18496987;32;20068;-60
2022/09/20 16:52:10;;;;;;;4.12;0.50;;;;;;;13.81;53.91;98273.44;18489309;32;20072;-60
2022/09/20 17:02:13;;;;;;;2.78;0.30;;;;;;;13.32;64.19;98283.00;18495667;32;20133;-60
2022/09/20 17:12:20;;;;;;;1.77;0.37;;;;;;;12.86;68.40;98292.78;18481651;32;20373;-60
2022/09/20 17:22:24;;;;;;;2.67;0.62;;;;;;;12.35;72.26;98292.69;18495773;32;20097;-60
2022/09/20 17:32:28;;;;;;;1.50;1.00;;;;;;;11.85;74.08;98295.69;18480807;32;20057;-60
2022/09/20 17:42:32;;;;;;;4.78;1.45;;;;;;;11.40;76.46;98307.88;18495308;32;20345;-60
2022/09/20 17:52:35;;;;;;;3.30;1.23;;;;;;;11.05;78.59;98320.03;18494629;32;20049;-60
2022/09/20 18:02:38;;;;;;;2.23;0.93;;;;;;;10.72;81.22;98332.69;18485018;32;20052;-60
2022/09/20 18:12:41;;;;;;;1.50;0.70;;;;;;;10.45;82.96;98344.28;18479330;32;20053;-60
2022/09/20 18:22:47;;;;;;;1.30;0.70;;;;;;;10.15;84.63;98348.25;18491446;32;20359;-59
2022/09/20 18:32:50;;;;;;;1.70;0.60;;;;;;;9.93;86.27;98350.09;18504728;32;20113;-60
2022/09/20 18:42:58;;;;;;;3.80;0.63;;;;;;;9.74;87.49;98361.16;18497621;32;20056;-60
2022/09/20 18:53:06;;;;;;;1.23;0.40;;;;;;;9.49;87.86;98365.09;18490368;32;20068;-60
2022/09/20 19:03:21;;;;;;;0.90;0.57;;;;;;;9.33;88.35;98371.31;18502623;32;20052;-60
2022/09/20 19:13:34;;;;;;;0.70;0.40;;;;;;;9.13;87.95;98375.31;18501974;32;20073;-60
2022/09/20 19:23:59;;;;;;;1.47;0.63;;;;;;;8.96;88.31;98383.38;18501843;32;20075;-62
2022/09/20 19:34:13;;;;;;;1.70;0.47;;;;;;;8.72;88.69;98382.66;18501343;32;20061;-62
2022/09/20 19:44:43;;;;;;;1.80;0.50;;;;;;;8.67;91.08;98395.22;18486800;32;20073;-62
2022/09/20 19:54:46;;;;;;;0.90;0.40;;;;;;;8.43;90.70;98398.75;18485745;32;20061;-62
2022/09/20 20:04:50;;;;;;;1.67;0.83;;;;;;;8.24;90.57;98386.50;18498887;32;20057;-62
2022/09/20 20:14:59;;;;;;;2.33;1.50;;;;;;;8.11;92.71;98391.09;18498663;32;20057;-62
2022/09/20 20:25:01;;;;;;;3.10;1.50;;;;;;;8.06;93.08;98399.06;18497378;32;20099;-61
2022/09/20 20:35:05;;;;;;;2.53;1.30;;;;;;;8.14;94.83;98398.69;18497476;32;20095;-62
2022/09/20 20:45:09;;;;;;;2.77;1.23;;;;;;;8.25;95.64;98404.28;18482677;32;20050;-61
2022/09/20 20:55:12;;;;;;;3.58;2.28;;;;;;;8.28;96.04;98395.75;18496379;32;20083;-62
2022/09/20 21:05:15;;;;;;;3.27;1.17;;;;;;;8.32;96.45;98410.38;18429932;32;20115;-62
2022/09/20 21:15:17;;;;;;;3.57;1.50;;;;;;;8.39;97.70;98408.37;18429981;32;20097;-62
2022/09/20 21:25:19;;;;;;;3.30;1.73;;;;;;;8.38;98.33;98420.22;18430859;32;20057;-62
2022/09/20 21:35:22;;;;;;;3.33;1.10;;;;;;;8.46;99.14;98417.19;18433778;32;20076;-62
2022/09/20 21:45:28;;;;;;;1.97;0.90;;;;;;;8.64;100.00;98426.16;18443366;32;20465;-62
2022/09/20 21:55:30;;;;;;;1.60;0.80;;;;;;;8.74;100.00;98418.28;18442772;32;20335;-62
2022/09/20 22:05:33;;;;;;;2.03;0.83;;;;;;;8.78;100.00;98421.31;18432181;32;20079;-62
2022/09/20 22:15:35;;;;;;;0.90;0.70;;;;;;;8.71;100.00;98418.75;18304089;32;20074;-62
2022/09/20 22:25:40;;;;;;;1.00;0.60;;;;;;;8.63;100.00;98417.28;18290532;32;20463;-62
2022/09/20 22:35:46;;;;;;;1.23;0.60;;;;;;;8.47;99.96;98405.34;18353788;32;20526;-62
2022/09/20 22:45:48;;;;;;;1.85;0.70;;;;;;;8.32;99.60;98405.81;18398347;32;20053;-62
2022/09/20 22:55:51;;;;;;;1.50;0.90;;;;;;;8.12;99.25;98406.19;18438828;32;20477;-62
2022/09/20 23:05:53;;;;;;;1.63;0.80;;;;;;;7.98;99.66;98400.22;18437028;32;20053;-62
2022/09/20 23:15:55;;;;;;;1.77;1.27;;;;;;;7.87;100.00;98408.31;18437819;32;20370;-62
2022/09/20 23:26:09;;;;;;;3.27;1.30;;;;;;;7.75;100.00;98406.44;18437104;32;20061;-62
2022/09/20 23:36:12;;;;;;;2.50;1.20;;;;;;;7.64;100.00;98405.34;18363644;32;20077;-62
2022/09/20 23:46:16;;;;;;;3.70;1.50;;;;;;;7.50;100.00;98392.37;18362524;32;20115;-62
2022/09/20 23:56:20;;;;;;;2.83;1.57;;;;;;;7.35;100.00;98396.31;18348720;32;20084;-62
